sensor_id;sensor_type;location;lat;lon;timestamp;temperature;humidity
67769;DHT22;54569;52.018;5.584;2023-08-08T00:01:20;15.30;88.30
67769;DHT22;54569;52.018;5.584;2023-08-08T00:03:45;15.30;88.10
67769;DHT22;54569;52.018;5.584;2023-08-08T00:06:11;15.30;88.00
67769;DHT22;54569;52.018;5.584;2023-08-08T00:08:37;15.40;88.00
67769;DHT22;54569;52.018;5.584;2023-08-08T00:11:03;15.40;88.20
67769;DHT22;54569;52.018;5.584;2023-08-08T00:13:28;15.40;88.10
67769;DHT22;54569;52.018;5.584;2023-08-08T00:15:54;15.40;88.10
67769;DHT22;54569;52.018;5.584;2023-08-08T00:18:20;15.40;88.20
67769;DHT22;54569;52.018;5.584;2023-08-08T00:20:45;15.50;88.30
67769;DHT22;54569;52.018;5.584;2023-08-08T00:23:11;15.50;88.40
67769;DHT22;54569;52.018;5.584;2023-08-08T00:25:37;15.50;88.40
67769;DHT22;54569;52.018;5.584;2023-08-08T00:28:03;15.50;88.60
67769;DHT22;54569;52.018;5.584;2023-08-08T00:30:29;15.50;88.70
67769;DHT22;54569;52.018;5.584;2023-08-08T00:32:55;15.50;89.00
67769;DHT22;54569;52.018;5.584;2023-08-08T00:35:21;15.50;89.00
67769;DHT22;54569;52.018;5.584;2023-08-08T00:37:47;15.50;89.10
67769;DHT22;54569;52.018;5.584;2023-08-08T00:40:13;15.50;89.00
67769;DHT22;54569;52.018;5.584;2023-08-08T00:42:39;15.50;89.10
67769;DHT22;54569;52.018;5.584;2023-08-08T00:45:05;15.60;89.10
67769;DHT22;54569;52.018;5.584;2023-08-08T00:47:32;15.60;89.40
67769;DHT22;54569;52.018;5.584;2023-08-08T00:49:59;15.50;89.40
67769;DHT22;54569;52.018;5.584;2023-08-08T00:52:25;15.50;89.60
67769;DHT22;54569;52.018;5.584;2023-08-08T00:54:52;15.50;90.00
67769;DHT22;54569;52.018;5.584;2023-08-08T00:57:20;15.60;90.00
67769;DHT22;54569;52.018;5.584;2023-08-08T00:59:46;15.60;90.10
67769;DHT22;54569;52.018;5.584;2023-08-08T01:02:14;15.60;90.20
67769;DHT22;54569;52.018;5.584;2023-08-08T01:04:40;15.60;90.30
67769;DHT22;54569;52.018;5.584;2023-08-08T01:09:55;15.60;90.50
67769;DHT22;54569;52.018;5.584;2023-08-08T01:12:23;15.60;90.60
67769;DHT22;54569;52.018;5.584;2023-08-08T01:14:53;15.60;90.60
67769;DHT22;54569;52.018;5.584;2023-08-08T01:17:20;15.60;90.80
67769;DHT22;54569;52.018;5.584;2023-08-08T01:19:47;15.60;90.80
67769;DHT22;54569;52.018;5.584;2023-08-08T01:22:25;15.60;90.80
67769;DHT22;54569;52.018;5.584;2023-08-08T01:24:53;15.60;91.00
67769;DHT22;54569;52.018;5.584;2023-08-08T01:27:19;15.60;91.00
67769;DHT22;54569;52.018;5.584;2023-08-08T01:29:46;15.50;91.10
67769;DHT22;54569;52.018;5.584;2023-08-08T01:32:13;15.50;91.20
67769;DHT22;54569;52.018;5.584;2023-08-08T01:34:39;15.50;91.40
67769;DHT22;54569;52.018;5.584;2023-08-08T01:37:17;15.50;91.40
67769;DHT22;54569;52.018;5.584;2023-08-08T01:39:44;15.50;91.50
67769;DHT22;54569;52.018;5.584;2023-08-08T01:42:12;15.60;91.50
67769;DHT22;54569;52.018;5.584;2023-08-08T01:44:40;15.50;91.60
67769;DHT22;54569;52.018;5.584;2023-08-08T01:47:07;15.50;91.60
67769;DHT22;54569;52.018;5.584;2023-08-08T01:49:33;15.50;91.80
67769;DHT22;54569;52.018;5.584;2023-08-08T01:51:59;15.40;91.90
67769;DHT22;54569;52.018;5.584;2023-08-08T01:54:24;15.40;92.00
67769;DHT22;54569;52.018;5.584;2023-08-08T01:56:50;15.40;92.40
67769;DHT22;54569;52.018;5.584;2023-08-08T01:59:16;15.40;92.30
67769;DHT22;54569;52.018;5.584;2023-08-08T02:01:42;15.40;92.40
67769;DHT22;54569;52.018;5.584;2023-08-08T02:04:08;15.40;92.40
67769;DHT22;54569;52.018;5.584;2023-08-08T02:06:34;15.30;92.40
67769;DHT22;54569;52.018;5.584;2023-08-08T02:08:59;15.30;92.50
67769;DHT22;54569;52.018;5.584;2023-08-08T02:11:25;15.30;92.50
67769;DHT22;54569;52.018;5.584;2023-08-08T02:13:51;15.20;92.70
67769;DHT22;54569;52.018;5.584;2023-08-08T02:16:17;15.20;92.70
67769;DHT22;54569;52.018;5.584;2023-08-08T02:18:42;15.20;92.80
67769;DHT22;54569;52.018;5.584;2023-08-08T02:21:08;15.20;92.90
67769;DHT22;54569;52.018;5.584;2023-08-08T02:23:34;15.10;92.90
67769;DHT22;54569;52.018;5.584;2023-08-08T02:26:00;15.10;93.00
67769;DHT22;54569;52.018;5.584;2023-08-08T02:28:26;15.10;93.10
67769;DHT22;54569;52.018;5.584;2023-08-08T02:30:52;15.10;93.10
67769;DHT22;54569;52.018;5.584;2023-08-08T02:33:18;15.10;93.20
67769;DHT22;54569;52.018;5.584;2023-08-08T02:35:44;15.10;93.20
67769;DHT22;54569;52.018;5.584;2023-08-08T02:38:10;15.10;93.20
67769;DHT22;54569;52.018;5.584;2023-08-08T02:40:39;15.10;93.30
67769;DHT22;54569;52.018;5.584;2023-08-08T02:43:05;15.00;93.30
67769;DHT22;54569;52.018;5.584;2023-08-08T02:45:31;15.10;93.40
67769;DHT22;54569;52.018;5.584;2023-08-08T02:47:56;15.10;93.40
67769;DHT22;54569;52.018;5.584;2023-08-08T02:50:23;15.00;93.40
67769;DHT22;54569;52.018;5.584;2023-08-08T02:52:52;15.00;93.40
67769;DHT22;54569;52.018;5.584;2023-08-08T02:55:22;15.00;93.40
67769;DHT22;54569;52.018;5.584;2023-08-08T02:57:50;15.00;93.40
67769;DHT22;54569;52.018;5.584;2023-08-08T03:00:16;15.00;93.70
67769;DHT22;54569;52.018;5.584;2023-08-08T03:02:46;14.90;93.70
67769;DHT22;54569;52.018;5.584;2023-08-08T03:05:12;14.90;93.80
67769;DHT22;54569;52.018;5.584;2023-08-08T03:07:37;14.90;94.00
67769;DHT22;54569;52.018;5.584;2023-08-08T03:10:04;15.00;94.00
67769;DHT22;54569;52.018;5.584;2023-08-08T03:12:31;15.00;94.00
67769;DHT22;54569;52.018;5.584;2023-08-08T03:14:57;15.00;93.90
67769;DHT22;54569;52.018;5.584;2023-08-08T03:17:23;15.10;94.00
67769;DHT22;54569;52.018;5.584;2023-08-08T03:19:50;15.10;94.00
67769;DHT22;54569;52.018;5.584;2023-08-08T03:22:15;15.10;94.10
67769;DHT22;54569;52.018;5.584;2023-08-08T03:24:41;15.10;94.10
67769;DHT22;54569;52.018;5.584;2023-08-08T03:27:07;15.10;94.00
67769;DHT22;54569;52.018;5.584;2023-08-08T03:29:33;15.10;94.10
67769;DHT22;54569;52.018;5.584;2023-08-08T03:31:59;15.00;94.20
67769;DHT22;54569;52.018;5.584;2023-08-08T03:34:28;15.00;94.30
67769;DHT22;54569;52.018;5.584;2023-08-08T03:36:55;15.00;94.50
67769;DHT22;54569;52.018;5.584;2023-08-08T03:39:21;15.00;94.70
67769;DHT22;54569;52.018;5.584;2023-08-08T03:41:47;14.90;94.80
67769;DHT22;54569;52.018;5.584;2023-08-08T03:44:13;14.90;94.80
67769;DHT22;54569;52.018;5.584;2023-08-08T03:46:39;14.90;94.90
67769;DHT22;54569;52.018;5.584;2023-08-08T03:49:04;14.80;95.00
67769;DHT22;54569;52.018;5.584;2023-08-08T03:51:30;14.80;95.00
67769;DHT22;54569;52.018;5.584;2023-08-08T03:53:56;14.80;95.20
67769;DHT22;54569;52.018;5.584;2023-08-08T03:56:22;14.80;95.30
67769;DHT22;54569;52.018;5.584;2023-08-08T03:58:48;14.80;95.30
67769;DHT22;54569;52.018;5.584;2023-08-08T04:01:14;14.80;95.40
67769;DHT22;54569;52.018;5.584;2023-08-08T04:03:39;14.80;95.40
67769;DHT22;54569;52.018;5.584;2023-08-08T04:06:05;14.80;95.60
67769;DHT22;54569;52.018;5.584;2023-08-08T04:08:32;14.80;95.80
67769;DHT22;54569;52.018;5.584;2023-08-08T04:10:58;14.80;95.50
67769;DHT22;54569;52.018;5.584;2023-08-08T04:13:23;14.80;95.60
67769;DHT22;54569;52.018;5.584;2023-08-08T04:15:49;14.90;95.70
67769;DHT22;54569;52.018;5.584;2023-08-08T04:18:17;14.80;95.70
67769;DHT22;54569;52.018;5.584;2023-08-08T04:20:46;14.80;95.80
67769;DHT22;54569;52.018;5.584;2023-08-08T04:23:13;14.80;95.80
67769;DHT22;54569;52.018;5.584;2023-08-08T04:25:38;14.80;96.20
67769;DHT22;54569;52.018;5.584;2023-08-08T04:28:04;14.70;96.50
67769;DHT22;54569;52.018;5.584;2023-08-08T04:30:30;14.70;96.30
67769;DHT22;54569;52.018;5.584;2023-08-08T04:32:56;14.70;96.20
67769;DHT22;54569;52.018;5.584;2023-08-08T04:35:21;14.70;96.20
67769;DHT22;54569;52.018;5.584;2023-08-08T04:37:47;14.70;96.20
67769;DHT22;54569;52.018;5.584;2023-08-08T04:40:13;14.80;96.20
67769;DHT22;54569;52.018;5.584;2023-08-08T04:42:39;14.80;96.10
67769;DHT22;54569;52.018;5.584;2023-08-08T04:45:06;14.80;96.10
67769;DHT22;54569;52.018;5.584;2023-08-08T04:47:32;14.80;96.00
67769;DHT22;54569;52.018;5.584;2023-08-08T04:49:57;14.80;96.00
67769;DHT22;54569;52.018;5.584;2023-08-08T04:52:23;14.80;96.00
67769;DHT22;54569;52.018;5.584;2023-08-08T04:54:49;14.80;95.90
67769;DHT22;54569;52.018;5.584;2023-08-08T04:57:15;14.80;96.00
67769;DHT22;54569;52.018;5.584;2023-08-08T04:59:40;14.80;96.10
67769;DHT22;54569;52.018;5.584;2023-08-08T05:02:06;14.80;96.20
67769;DHT22;54569;52.018;5.584;2023-08-08T05:04:32;14.80;96.30
67769;DHT22;54569;52.018;5.584;2023-08-08T05:06:57;14.80;96.30
67769;DHT22;54569;52.018;5.584;2023-08-08T05:09:23;14.80;96.40
67769;DHT22;54569;52.018;5.584;2023-08-08T05:11:52;14.90;96.30
67769;DHT22;54569;52.018;5.584;2023-08-08T05:14:19;14.90;96.40
67769;DHT22;54569;52.018;5.584;2023-08-08T05:16:44;15.00;96.30
67769;DHT22;54569;52.018;5.584;2023-08-08T05:19:10;15.00;96.20
67769;DHT22;54569;52.018;5.584;2023-08-08T05:21:36;15.00;96.20
67769;DHT22;54569;52.018;5.584;2023-08-08T05:24:02;15.10;96.00
67769;DHT22;54569;52.018;5.584;2023-08-08T05:26:27;15.10;95.80
67769;DHT22;54569;52.018;5.584;2023-08-08T05:28:53;15.20;95.80
67769;DHT22;54569;52.018;5.584;2023-08-08T05:31:19;15.20;95.70
67769;DHT22;54569;52.018;5.584;2023-08-08T05:33:45;15.20;95.80
67769;DHT22;54569;52.018;5.584;2023-08-08T05:36:10;15.20;95.60
67769;DHT22;54569;52.018;5.584;2023-08-08T05:38:36;15.30;95.60
67769;DHT22;54569;52.018;5.584;2023-08-08T05:41:02;15.30;95.40
67769;DHT22;54569;52.018;5.584;2023-08-08T05:43:28;15.30;95.30
67769;DHT22;54569;52.018;5.584;2023-08-08T05:45:54;15.30;95.30
67769;DHT22;54569;52.018;5.584;2023-08-08T05:48:19;15.40;95.40
67769;DHT22;54569;52.018;5.584;2023-08-08T05:50:45;15.40;95.20
67769;DHT22;54569;52.018;5.584;2023-08-08T05:53:11;15.50;95.20
67769;DHT22;54569;52.018;5.584;2023-08-08T05:55:37;15.50;95.10
67769;DHT22;54569;52.018;5.584;2023-08-08T05:58:03;15.50;95.00
67769;DHT22;54569;52.018;5.584;2023-08-08T06:00:30;15.60;94.80
67769;DHT22;54569;52.018;5.584;2023-08-08T06:02:55;15.60;94.60
67769;DHT22;54569;52.018;5.584;2023-08-08T06:05:22;15.70;94.40
67769;DHT22;54569;52.018;5.584;2023-08-08T06:07:49;15.80;94.10
67769;DHT22;54569;52.018;5.584;2023-08-08T06:10:14;15.80;93.80
67769;DHT22;54569;52.018;5.584;2023-08-08T06:12:40;15.90;93.60
67769;DHT22;54569;52.018;5.584;2023-08-08T06:15:07;16.00;93.40
67769;DHT22;54569;52.018;5.584;2023-08-08T06:17:34;16.00;93.30
67769;DHT22;54569;52.018;5.584;2023-08-08T06:19:59;16.10;92.80
67769;DHT22;54569;52.018;5.584;2023-08-08T06:22:25;16.10;92.60
67769;DHT22;54569;52.018;5.584;2023-08-08T06:24:51;16.20;92.40
67769;DHT22;54569;52.018;5.584;2023-08-08T06:27:17;16.20;92.20
67769;DHT22;54569;52.018;5.584;2023-08-08T06:29:43;16.20;92.20
67769;DHT22;54569;52.018;5.584;2023-08-08T06:32:09;16.20;92.10
67769;DHT22;54569;52.018;5.584;2023-08-08T06:34:34;16.30;91.90
67769;DHT22;54569;52.018;5.584;2023-08-08T06:37:00;16.30;91.60
67769;DHT22;54569;52.018;5.584;2023-08-08T06:39:26;16.30;91.20
67769;DHT22;54569;52.018;5.584;2023-08-08T06:41:51;16.40;90.80
67769;DHT22;54569;52.018;5.584;2023-08-08T06:44:32;16.50;90.30
67769;DHT22;54569;52.018;5.584;2023-08-08T06:46:58;16.50;90.10
67769;DHT22;54569;52.018;5.584;2023-08-08T06:49:24;16.60;90.10
67769;DHT22;54569;52.018;5.584;2023-08-08T06:51:49;16.60;89.60
67769;DHT22;54569;52.018;5.584;2023-08-08T06:54:15;16.70;89.20
67769;DHT22;54569;52.018;5.584;2023-08-08T06:56:41;16.70;88.50
67769;DHT22;54569;52.018;5.584;2023-08-08T06:59:07;16.70;87.60
67769;DHT22;54569;52.018;5.584;2023-08-08T07:01:32;16.70;87.30
67769;DHT22;54569;52.018;5.584;2023-08-08T07:03:59;16.80;87.20
67769;DHT22;54569;52.018;5.584;2023-08-08T07:06:25;16.90;86.60
67769;DHT22;54569;52.018;5.584;2023-08-08T07:08:51;16.90;86.20
67769;DHT22;54569;52.018;5.584;2023-08-08T07:11:16;17.00;85.90
67769;DHT22;54569;52.018;5.584;2023-08-08T07:13:42;17.10;84.80
67769;DHT22;54569;52.018;5.584;2023-08-08T07:16:08;17.20;84.00
67769;DHT22;54569;52.018;5.584;2023-08-08T07:18:34;17.30;83.40
67769;DHT22;54569;52.018;5.584;2023-08-08T07:20:59;17.30;83.20
67769;DHT22;54569;52.018;5.584;2023-08-08T07:23:25;17.40;82.50
67769;DHT22;54569;52.018;5.584;2023-08-08T07:25:51;17.40;82.30
67769;DHT22;54569;52.018;5.584;2023-08-08T07:28:17;17.50;82.30
67769;DHT22;54569;52.018;5.584;2023-08-08T07:30:43;17.50;81.60
67769;DHT22;54569;52.018;5.584;2023-08-08T07:33:08;17.60;81.50
67769;DHT22;54569;52.018;5.584;2023-08-08T07:35:34;17.70;81.00
67769;DHT22;54569;52.018;5.584;2023-08-08T07:38:00;17.70;80.80
67769;DHT22;54569;52.018;5.584;2023-08-08T07:40:26;17.80;80.20
67769;DHT22;54569;52.018;5.584;2023-08-08T07:42:51;17.90;79.60
67769;DHT22;54569;52.018;5.584;2023-08-08T07:45:18;18.00;79.10
67769;DHT22;54569;52.018;5.584;2023-08-08T07:47:44;18.00;78.40
67769;DHT22;54569;52.018;5.584;2023-08-08T07:50:10;18.10;78.50
67769;DHT22;54569;52.018;5.584;2023-08-08T07:52:37;18.10;78.00
67769;DHT22;54569;52.018;5.584;2023-08-08T07:55:03;18.20;77.70
67769;DHT22;54569;52.018;5.584;2023-08-08T07:57:30;18.30;77.40
67769;DHT22;54569;52.018;5.584;2023-08-08T07:59:56;18.40;77.10
67769;DHT22;54569;52.018;5.584;2023-08-08T08:02:22;18.50;76.80
67769;DHT22;54569;52.018;5.584;2023-08-08T08:04:47;18.70;76.20
67769;DHT22;54569;52.018;5.584;2023-08-08T08:07:13;18.70;75.80
67769;DHT22;54569;52.018;5.584;2023-08-08T08:09:39;18.80;75.50
67769;DHT22;54569;52.018;5.584;2023-08-08T08:12:08;18.90;75.10
67769;DHT22;54569;52.018;5.584;2023-08-08T08:14:33;19.00;74.80
67769;DHT22;54569;52.018;5.584;2023-08-08T08:16:59;19.10;74.30
67769;DHT22;54569;52.018;5.584;2023-08-08T08:19:25;19.30;73.90
67769;DHT22;54569;52.018;5.584;2023-08-08T08:21:50;19.40;73.20
67769;DHT22;54569;52.018;5.584;2023-08-08T08:24:16;19.50;72.80
67769;DHT22;54569;52.018;5.584;2023-08-08T08:26:42;19.50;71.70
67769;DHT22;54569;52.018;5.584;2023-08-08T08:29:08;19.50;72.10
67769;DHT22;54569;52.018;5.584;2023-08-08T08:31:33;19.70;72.10
67769;DHT22;54569;52.018;5.584;2023-08-08T08:33:59;19.80;71.30
67769;DHT22;54569;52.018;5.584;2023-08-08T08:36:25;20.00;71.30
67769;DHT22;54569;52.018;5.584;2023-08-08T08:38:52;20.10;70.80
67769;DHT22;54569;52.018;5.584;2023-08-08T08:41:19;20.10;70.90
67769;DHT22;54569;52.018;5.584;2023-08-08T08:43:49;20.20;70.80
67769;DHT22;54569;52.018;5.584;2023-08-08T08:46:19;20.10;70.50
67769;DHT22;54569;52.018;5.584;2023-08-08T08:48:46;20.00;70.90
67769;DHT22;54569;52.018;5.584;2023-08-08T08:51:12;20.00;70.50
67769;DHT22;54569;52.018;5.584;2023-08-08T08:53:39;20.00;70.10
67769;DHT22;54569;52.018;5.584;2023-08-08T08:56:08;20.20;70.10
67769;DHT22;54569;52.018;5.584;2023-08-08T08:58:34;20.20;69.40
67769;DHT22;54569;52.018;5.584;2023-08-08T09:01:00;20.30;69.10
67769;DHT22;54569;52.018;5.584;2023-08-08T09:03:26;20.40;69.10
67769;DHT22;54569;52.018;5.584;2023-08-08T09:05:53;20.50;68.60
67769;DHT22;54569;52.018;5.584;2023-08-08T09:08:20;20.50;68.60
67769;DHT22;54569;52.018;5.584;2023-08-08T09:10:46;20.40;68.70
67769;DHT22;54569;52.018;5.584;2023-08-08T09:13:11;20.50;68.30
67769;DHT22;54569;52.018;5.584;2023-08-08T09:15:37;20.50;68.20
67769;DHT22;54569;52.018;5.584;2023-08-08T09:18:03;20.60;68.00
67769;DHT22;54569;52.018;5.584;2023-08-08T09:20:28;20.70;67.70
67769;DHT22;54569;52.018;5.584;2023-08-08T09:22:55;20.80;67.10
67769;DHT22;54569;52.018;5.584;2023-08-08T09:25:20;20.80;66.70
67769;DHT22;54569;52.018;5.584;2023-08-08T09:27:46;20.80;66.80
67769;DHT22;54569;52.018;5.584;2023-08-08T09:30:12;20.90;66.60
67769;DHT22;54569;52.018;5.584;2023-08-08T09:32:38;21.00;66.40
67769;DHT22;54569;52.018;5.584;2023-08-08T09:35:05;21.00;66.00
67769;DHT22;54569;52.018;5.584;2023-08-08T09:37:34;21.10;66.30
67769;DHT22;54569;52.018;5.584;2023-08-08T09:40:01;21.20;65.60
67769;DHT22;54569;52.018;5.584;2023-08-08T09:42:29;21.20;65.80
67769;DHT22;54569;52.018;5.584;2023-08-08T09:44:58;21.40;65.50
67769;DHT22;54569;52.018;5.584;2023-08-08T09:47:25;21.60;65.20
67769;DHT22;54569;52.018;5.584;2023-08-08T09:49:59;21.60;64.80
67769;DHT22;54569;52.018;5.584;2023-08-08T09:52:27;21.60;64.40
67769;DHT22;54569;52.018;5.584;2023-08-08T09:54:54;21.70;64.50
67769;DHT22;54569;52.018;5.584;2023-08-08T09:57:21;21.80;63.90
67769;DHT22;54569;52.018;5.584;2023-08-08T09:59:47;21.70;63.80
67769;DHT22;54569;52.018;5.584;2023-08-08T10:02:15;21.70;63.90
67769;DHT22;54569;52.018;5.584;2023-08-08T10:04:47;21.70;64.00
67769;DHT22;54569;52.018;5.584;2023-08-08T10:07:14;21.80;62.10
67769;DHT22;54569;52.018;5.584;2023-08-08T10:09:40;21.90;63.40
67769;DHT22;54569;52.018;5.584;2023-08-08T10:12:07;21.90;63.30
67769;DHT22;54569;52.018;5.584;2023-08-08T10:14:35;21.80;63.00
67769;DHT22;54569;52.018;5.584;2023-08-08T10:17:03;21.80;63.00
67769;DHT22;54569;52.018;5.584;2023-08-08T10:19:29;21.90;63.10
67769;DHT22;54569;52.018;5.584;2023-08-08T10:21:58;21.90;63.10
67769;DHT22;54569;52.018;5.584;2023-08-08T10:24:24;22.00;62.70
67769;DHT22;54569;52.018;5.584;2023-08-08T10:27:00;22.00;62.60
67769;DHT22;54569;52.018;5.584;2023-08-08T10:29:29;21.90;59.50
67769;DHT22;54569;52.018;5.584;2023-08-08T10:32:06;21.80;63.10
67769;DHT22;54569;52.018;5.584;2023-08-08T10:34:43;21.80;60.30
67769;DHT22;54569;52.018;5.584;2023-08-08T10:37:11;21.70;61.60
67769;DHT22;54569;52.018;5.584;2023-08-08T10:39:48;21.60;63.70
67769;DHT22;54569;52.018;5.584;2023-08-08T10:42:18;21.70;62.80
67769;DHT22;54569;52.018;5.584;2023-08-08T10:45:00;21.70;62.50
67769;DHT22;54569;52.018;5.584;2023-08-08T10:47:36;21.50;62.10
67769;DHT22;54569;52.018;5.584;2023-08-08T10:52:33;21.90;61.90
67769;DHT22;54569;52.018;5.584;2023-08-08T10:55:01;22.20;61.90
67769;DHT22;54569;52.018;5.584;2023-08-08T10:57:28;22.50;61.00
67769;DHT22;54569;52.018;5.584;2023-08-08T10:59:55;22.70;60.70
67769;DHT22;54569;52.018;5.584;2023-08-08T11:02:41;22.60;60.80
67769;DHT22;54569;52.018;5.584;2023-08-08T11:05:07;22.40;61.30
67769;DHT22;54569;52.018;5.584;2023-08-08T11:07:34;22.20;61.40
67769;DHT22;54569;52.018;5.584;2023-08-08T11:10:03;22.30;61.60
67769;DHT22;54569;52.018;5.584;2023-08-08T11:12:29;22.40;61.00
67769;DHT22;54569;52.018;5.584;2023-08-08T11:14:55;22.20;61.30
67769;DHT22;54569;52.018;5.584;2023-08-08T11:17:20;21.80;62.00
67769;DHT22;54569;52.018;5.584;2023-08-08T11:19:46;21.50;62.70
67769;DHT22;54569;52.018;5.584;2023-08-08T11:22:12;21.60;62.50
67769;DHT22;54569;52.018;5.584;2023-08-08T11:24:37;21.90;61.60
67769;DHT22;54569;52.018;5.584;2023-08-08T11:27:03;22.10;61.30
67769;DHT22;54569;52.018;5.584;2023-08-08T11:29:29;22.40;61.00
67769;DHT22;54569;52.018;5.584;2023-08-08T11:32:01;22.80;60.50
67769;DHT22;54569;52.018;5.584;2023-08-08T11:34:32;23.20;59.20
67769;DHT22;54569;52.018;5.584;2023-08-08T11:36:59;23.70;58.70
67769;DHT22;54569;52.018;5.584;2023-08-08T11:39:26;24.10;58.00
67769;DHT22;54569;52.018;5.584;2023-08-08T11:41:52;24.40;57.70
67769;DHT22;54569;52.018;5.584;2023-08-08T11:44:18;24.40;57.50
67769;DHT22;54569;52.018;5.584;2023-08-08T11:46:47;24.50;57.10
67769;DHT22;54569;52.018;5.584;2023-08-08T11:49:15;24.50;57.00
67769;DHT22;54569;52.018;5.584;2023-08-08T11:51:46;24.70;57.50
67769;DHT22;54569;52.018;5.584;2023-08-08T11:54:12;24.70;57.60
67769;DHT22;54569;52.018;5.584;2023-08-08T11:56:38;24.60;57.20
67769;DHT22;54569;52.018;5.584;2023-08-08T11:59:05;24.50;57.70
67769;DHT22;54569;52.018;5.584;2023-08-08T12:01:33;24.50;57.60
67769;DHT22;54569;52.018;5.584;2023-08-08T12:04:04;24.50;57.10
67769;DHT22;54569;52.018;5.584;2023-08-08T12:06:30;24.10;56.80
67769;DHT22;54569;52.018;5.584;2023-08-08T12:08:56;24.20;58.40
67769;DHT22;54569;52.018;5.584;2023-08-08T12:11:22;24.30;57.60
67769;DHT22;54569;52.018;5.584;2023-08-08T12:13:48;24.30;57.30
67769;DHT22;54569;52.018;5.584;2023-08-08T12:16:14;24.20;57.60
67769;DHT22;54569;52.018;5.584;2023-08-08T12:18:41;24.30;57.60
67769;DHT22;54569;52.018;5.584;2023-08-08T12:21:08;24.30;57.70
67769;DHT22;54569;52.018;5.584;2023-08-08T12:23:35;24.10;57.80
67769;DHT22;54569;52.018;5.584;2023-08-08T12:26:03;24.00;57.80
67769;DHT22;54569;52.018;5.584;2023-08-08T12:28:31;24.00;57.60
67769;DHT22;54569;52.018;5.584;2023-08-08T12:30:57;23.90;57.80
67769;DHT22;54569;52.018;5.584;2023-08-08T12:33:22;23.80;58.10
67769;DHT22;54569;52.018;5.584;2023-08-08T12:35:48;23.80;57.90
67769;DHT22;54569;52.018;5.584;2023-08-08T12:38:15;23.70;58.20
67769;DHT22;54569;52.018;5.584;2023-08-08T12:40:41;23.70;58.00
67769;DHT22;54569;52.018;5.584;2023-08-08T12:43:07;23.60;57.80
67769;DHT22;54569;52.018;5.584;2023-08-08T12:45:32;23.40;58.10
67769;DHT22;54569;52.018;5.584;2023-08-08T12:47:58;23.30;58.10
67769;DHT22;54569;52.018;5.584;2023-08-08T12:50:24;23.10;58.50
67769;DHT22;54569;52.018;5.584;2023-08-08T12:52:50;23.00;58.40
67769;DHT22;54569;52.018;5.584;2023-08-08T12:55:16;22.80;59.10
67769;DHT22;54569;52.018;5.584;2023-08-08T12:57:43;22.90;58.90
67769;DHT22;54569;52.018;5.584;2023-08-08T13:00:10;22.70;58.80
67769;DHT22;54569;52.018;5.584;2023-08-08T13:02:38;22.50;59.00
67769;DHT22;54569;52.018;5.584;2023-08-08T13:05:04;22.20;59.40
67769;DHT22;54569;52.018;5.584;2023-08-08T13:07:32;21.90;59.80
67769;DHT22;54569;52.018;5.584;2023-08-08T13:09:58;21.80;60.00
67769;DHT22;54569;52.018;5.584;2023-08-08T13:12:24;21.80;59.90
67769;DHT22;54569;52.018;5.584;2023-08-08T13:14:49;21.80;59.60
67769;DHT22;54569;52.018;5.584;2023-08-08T13:17:15;21.70;60.30
67769;DHT22;54569;52.018;5.584;2023-08-08T13:19:41;21.80;60.10
67769;DHT22;54569;52.018;5.584;2023-08-08T13:22:06;22.00;59.60
67769;DHT22;54569;52.018;5.584;2023-08-08T13:24:32;22.20;59.20
67769;DHT22;54569;52.018;5.584;2023-08-08T13:26:58;22.30;58.90
67769;DHT22;54569;52.018;5.584;2023-08-08T13:29:24;22.40;58.80
67769;DHT22;54569;52.018;5.584;2023-08-08T13:31:49;22.30;59.00
67769;DHT22;54569;52.018;5.584;2023-08-08T13:34:15;22.30;59.00
67769;DHT22;54569;52.018;5.584;2023-08-08T13:36:41;22.20;59.20
67769;DHT22;54569;52.018;5.584;2023-08-08T13:39:07;22.10;59.00
67769;DHT22;54569;52.018;5.584;2023-08-08T13:41:35;22.00;59.40
67769;DHT22;54569;52.018;5.584;2023-08-08T13:44:00;21.90;59.50
67769;DHT22;54569;52.018;5.584;2023-08-08T13:46:26;21.80;59.70
67769;DHT22;54569;52.018;5.584;2023-08-08T13:48:52;21.90;59.50
67769;DHT22;54569;52.018;5.584;2023-08-08T13:51:18;21.90;59.70
67769;DHT22;54569;52.018;5.584;2023-08-08T13:53:44;21.80;59.60
67769;DHT22;54569;52.018;5.584;2023-08-08T13:56:11;21.70;59.60
67769;DHT22;54569;52.018;5.584;2023-08-08T13:58:36;21.60;59.80
67769;DHT22;54569;52.018;5.584;2023-08-08T14:01:02;21.60;60.00
67769;DHT22;54569;52.018;5.584;2023-08-08T14:03:28;21.50;60.10
67769;DHT22;54569;52.018;5.584;2023-08-08T14:05:54;21.50;60.20
67769;DHT22;54569;52.018;5.584;2023-08-08T14:08:20;21.40;60.10
67769;DHT22;54569;52.018;5.584;2023-08-08T14:10:46;21.40;60.00
67769;DHT22;54569;52.018;5.584;2023-08-08T14:13:12;21.50;60.20
67769;DHT22;54569;52.018;5.584;2023-08-08T14:15:38;21.40;59.90
67769;DHT22;54569;52.018;5.584;2023-08-08T14:18:07;21.40;60.20
67769;DHT22;54569;52.018;5.584;2023-08-08T14:20:32;21.30;59.90
67769;DHT22;54569;52.018;5.584;2023-08-08T14:22:59;21.30;60.10
67769;DHT22;54569;52.018;5.584;2023-08-08T14:25:25;21.40;60.20
67769;DHT22;54569;52.018;5.584;2023-08-08T14:27:50;21.50;60.00
67769;DHT22;54569;52.018;5.584;2023-08-08T14:30:16;21.60;59.70
67769;DHT22;54569;52.018;5.584;2023-08-08T14:32:42;21.70;59.10
67769;DHT22;54569;52.018;5.584;2023-08-08T14:35:07;21.70;59.40
67769;DHT22;54569;52.018;5.584;2023-08-08T14:37:35;21.80;59.30
67769;DHT22;54569;52.018;5.584;2023-08-08T14:40:01;21.90;58.80
67769;DHT22;54569;52.018;5.584;2023-08-08T14:42:28;21.90;58.80
67769;DHT22;54569;52.018;5.584;2023-08-08T14:44:54;21.90;58.70
67769;DHT22;54569;52.018;5.584;2023-08-08T14:47:19;21.90;58.40
67769;DHT22;54569;52.018;5.584;2023-08-08T14:49:45;21.70;58.90
67769;DHT22;54569;52.018;5.584;2023-08-08T14:52:12;21.60;59.00
67769;DHT22;54569;52.018;5.584;2023-08-08T14:54:38;21.60;59.00
67769;DHT22;54569;52.018;5.584;2023-08-08T14:57:05;21.60;58.80
67769;DHT22;54569;52.018;5.584;2023-08-08T14:59:31;21.40;59.10
67769;DHT22;54569;52.018;5.584;2023-08-08T15:01:56;21.30;59.10
67769;DHT22;54569;52.018;5.584;2023-08-08T15:04:22;21.30;59.00
67769;DHT22;54569;52.018;5.584;2023-08-08T15:06:48;21.20;59.00
67769;DHT22;54569;52.018;5.584;2023-08-08T15:09:13;21.20;59.30
67769;DHT22;54569;52.018;5.584;2023-08-08T15:11:39;21.20;59.50
67769;DHT22;54569;52.018;5.584;2023-08-08T15:14:05;21.20;59.50
67769;DHT22;54569;52.018;5.584;2023-08-08T15:16:30;21.40;59.30
67769;DHT22;54569;52.018;5.584;2023-08-08T15:18:56;21.50;58.30
67769;DHT22;54569;52.018;5.584;2023-08-08T15:21:22;21.40;58.30
67769;DHT22;54569;52.018;5.584;2023-08-08T15:23:48;21.50;58.40
67769;DHT22;54569;52.018;5.584;2023-08-08T15:26:15;21.40;58.30
67769;DHT22;54569;52.018;5.584;2023-08-08T15:28:46;21.60;58.30
67769;DHT22;54569;52.018;5.584;2023-08-08T15:31:12;21.60;58.40